Aviation

Port-au-Prince

FTHA31 MTPP 051800
TAF MTPP 051704Z 0518/0618 10012KT 9000 FEW028
BECMG 0519/0522 30010KT
PROB30 TEMPO 0600/0605 4800 TSRA FEW024CB BKN040
BECMG 0606/0610 VRB02KT 9000 NSW=


Cap-Haïtien

FTHA31 MTCH 051800
TAF MTCH 051752Z 0518/0618 02010KT 9000 FEW030
PROB30 TEMPO 0600/0605 4500 TSRA SCT026CB
BECMG 0606/0610 VRB02KT 9000 NSW FEW020=